sensor_id;sensor_type;location;lat;lon;timestamp;temperature;humidity
25050;DHT22;13046;49.814;9.918;2022-08-02T00:01:44;19.40;99.90
25050;DHT22;13046;49.814;9.918;2022-08-02T00:04:10;19.40;99.90
25050;DHT22;13046;49.814;9.918;2022-08-02T00:06:36;19.50;99.90
25050;DHT22;13046;49.814;9.918;2022-08-02T00:09:03;19.50;99.90
25050;DHT22;13046;49.814;9.918;2022-08-02T00:11:30;19.50;99.90
25050;DHT22;13046;49.814;9.918;2022-08-02T00:13:56;19.50;99.90
25050;DHT22;13046;49.814;9.918;2022-08-02T00:16:21;19.40;99.90
25050;DHT22;13046;49.814;9.918;2022-08-02T00:18:47;19.40;99.90
25050;DHT22;13046;49.814;9.918;2022-08-02T00:21:13;19.40;99.90
25050;DHT22;13046;49.814;9.918;2022-08-02T00:23:38;19.50;99.90
25050;DHT22;13046;49.814;9.918;2022-08-02T00:26:04;19.50;99.90
25050;DHT22;13046;49.814;9.918;2022-08-02T00:28:30;19.40;99.90
25050;DHT22;13046;49.814;9.918;2022-08-02T00:30:57;19.40;99.90
25050;DHT22;13046;49.814;9.918;2022-08-02T00:33:23;19.40;99.90
25050;DHT22;13046;49.814;9.918;2022-08-02T00:35:48;19.50;99.90
25050;DHT22;13046;49.814;9.918;2022-08-02T00:38:14;19.50;99.90
25050;DHT22;13046;49.814;9.918;2022-08-02T00:40:45;19.60;99.90
25050;DHT22;13046;49.814;9.918;2022-08-02T01:39:03;18.90;99.90
25050;DHT22;13046;49.814;9.918;2022-08-02T01:41:30;18.60;99.90
25050;DHT22;13046;49.814;9.918;2022-08-02T01:43:58;18.60;99.90
25050;DHT22;13046;49.814;9.918;2022-08-02T01:46:26;18.60;99.90
25050;DHT22;13046;49.814;9.918;2022-08-02T01:48:55;18.60;99.90
25050;DHT22;13046;49.814;9.918;2022-08-02T01:51:22;18.60;99.90
25050;DHT22;13046;49.814;9.918;2022-08-02T01:54:11;18.50;99.90
25050;DHT22;13046;49.814;9.918;2022-08-02T01:59:04;18.50;99.90
25050;DHT22;13046;49.814;9.918;2022-08-02T02:04:01;18.30;99.90
25050;DHT22;13046;49.814;9.918;2022-08-02T02:06:28;18.30;99.90
25050;DHT22;13046;49.814;9.918;2022-08-02T02:13:48;18.30;99.90
25050;DHT22;13046;49.814;9.918;2022-08-02T02:16:14;18.20;99.90
25050;DHT22;13046;49.814;9.918;2022-08-02T02:18:42;18.10;99.90
25050;DHT22;13046;49.814;9.918;2022-08-02T02:40:52;18.00;99.90
25050;DHT22;13046;49.814;9.918;2022-08-02T02:43:19;18.20;99.90
25050;DHT22;13046;49.814;9.918;2022-08-02T02:45:46;18.10;99.90
25050;DHT22;13046;49.814;9.918;2022-08-02T02:50:41;18.10;99.90
25050;DHT22;13046;49.814;9.918;2022-08-02T02:53:07;18.30;99.90
25050;DHT22;13046;49.814;9.918;2022-08-02T02:55:35;18.30;99.90
25050;DHT22;13046;49.814;9.918;2022-08-02T02:58:01;18.30;99.90
25050;DHT22;13046;49.814;9.918;2022-08-02T03:00:28;18.30;99.90
25050;DHT22;13046;49.814;9.918;2022-08-02T03:03:13;18.30;99.90
25050;DHT22;13046;49.814;9.918;2022-08-02T03:05:39;18.30;99.90
25050;DHT22;13046;49.814;9.918;2022-08-02T03:08:05;18.30;99.90
25050;DHT22;13046;49.814;9.918;2022-08-02T03:27:40;18.30;99.90
25050;DHT22;13046;49.814;9.918;2022-08-02T03:30:07;18.60;99.90
25050;DHT22;13046;49.814;9.918;2022-08-02T03:32:38;18.60;99.90
25050;DHT22;13046;49.814;9.918;2022-08-02T05:34:52;18.50;99.90
25050;DHT22;13046;49.814;9.918;2022-08-02T05:37:17;19.30;99.90
25050;DHT22;13046;49.814;9.918;2022-08-02T05:39:43;19.40;99.90
25050;DHT22;13046;49.814;9.918;2022-08-02T05:44:35;19.60;99.90
25050;DHT22;13046;49.814;9.918;2022-08-02T06:14:42;19.90;99.90
25050;DHT22;13046;49.814;9.918;2022-08-02T07:04:29;20.90;99.90
25050;DHT22;13046;49.814;9.918;2022-08-02T07:06:54;22.90;99.90
25050;DHT22;13046;49.814;9.918;2022-08-02T07:09:21;23.00;99.90
25050;DHT22;13046;49.814;9.918;2022-08-02T07:11:47;23.20;99.90
25050;DHT22;13046;49.814;9.918;2022-08-02T07:14:12;23.40;99.90
25050;DHT22;13046;49.814;9.918;2022-08-02T07:16:38;23.40;99.90
25050;DHT22;13046;49.814;9.918;2022-08-02T07:19:04;23.30;99.90
25050;DHT22;13046;49.814;9.918;2022-08-02T07:21:29;23.30;99.90
25050;DHT22;13046;49.814;9.918;2022-08-02T07:23:55;23.30;99.90
25050;DHT22;13046;49.814;9.918;2022-08-02T07:26:20;23.50;99.90
25050;DHT22;13046;49.814;9.918;2022-08-02T07:28:46;23.70;99.90
25050;DHT22;13046;49.814;9.918;2022-08-02T07:31:12;23.90;99.90
25050;DHT22;13046;49.814;9.918;2022-08-02T07:33:37;24.10;99.90
25050;DHT22;13046;49.814;9.918;2022-08-02T07:36:03;24.30;99.90
25050;DHT22;13046;49.814;9.918;2022-08-02T07:40:55;24.60;99.90
25050;DHT22;13046;49.814;9.918;2022-08-02T07:43:21;25.00;99.90
25050;DHT22;13046;49.814;9.918;2022-08-02T07:48:15;25.00;99.90
25050;DHT22;13046;49.814;9.918;2022-08-02T07:50:41;25.30;99.90
25050;DHT22;13046;49.814;9.918;2022-08-02T08:15:01;25.30;99.90
25050;DHT22;13046;49.814;9.918;2022-08-02T08:17:27;26.50;99.90
25050;DHT22;13046;49.814;9.918;2022-08-02T08:19:53;26.40;99.90
25050;DHT22;13046;49.814;9.918;2022-08-02T08:22:19;26.30;99.90
25050;DHT22;13046;49.814;9.918;2022-08-02T08:24:45;26.50;99.90
25050;DHT22;13046;49.814;9.918;2022-08-02T08:27:10;26.60;99.90
25050;DHT22;13046;49.814;9.918;2022-08-02T08:29:41;26.70;99.90
25050;DHT22;13046;49.814;9.918;2022-08-02T08:37:00;26.70;99.90
25050;DHT22;13046;49.814;9.918;2022-08-02T08:39:27;26.50;99.90
25050;DHT22;13046;49.814;9.918;2022-08-02T08:41:53;26.60;99.90
25050;DHT22;13046;49.814;9.918;2022-08-02T08:44:18;27.00;99.90
25050;DHT22;13046;49.814;9.918;2022-08-02T08:46:47;27.30;99.90
25050;DHT22;13046;49.814;9.918;2022-08-02T08:49:22;27.50;99.90
25050;DHT22;13046;49.814;9.918;2022-08-02T08:51:51;27.30;99.90
25050;DHT22;13046;49.814;9.918;2022-08-02T08:54:18;27.20;99.90
25050;DHT22;13046;49.814;9.918;2022-08-02T08:56:47;27.30;99.90
25050;DHT22;13046;49.814;9.918;2022-08-02T08:59:13;27.50;99.90
25050;DHT22;13046;49.814;9.918;2022-08-02T09:01:39;27.10;99.90
25050;DHT22;13046;49.814;9.918;2022-08-02T09:04:05;27.30;99.90
25050;DHT22;13046;49.814;9.918;2022-08-02T09:06:30;27.30;99.90
25050;DHT22;13046;49.814;9.918;2022-08-02T09:08:56;27.60;99.90
25050;DHT22;13046;49.814;9.918;2022-08-02T09:11:23;28.10;99.90
25050;DHT22;13046;49.814;9.918;2022-08-02T09:13:57;27.70;99.90
25050;DHT22;13046;49.814;9.918;2022-08-02T09:16:35;27.70;99.90
25050;DHT22;13046;49.814;9.918;2022-08-02T09:19:20;27.50;99.90
25050;DHT22;13046;49.814;9.918;2022-08-02T09:21:51;27.20;99.90
25050;DHT22;13046;49.814;9.918;2022-08-02T09:24:22;26.90;99.90
25050;DHT22;13046;49.814;9.918;2022-08-02T09:26:49;27.00;99.90
25050;DHT22;13046;49.814;9.918;2022-08-02T09:29:17;27.40;99.90
25050;DHT22;13046;49.814;9.918;2022-08-02T09:31:44;27.80;99.90
25050;DHT22;13046;49.814;9.918;2022-08-02T09:34:09;28.10;99.90
25050;DHT22;13046;49.814;9.918;2022-08-02T09:36:40;28.00;99.90
25050;DHT22;13046;49.814;9.918;2022-08-02T09:39:10;28.10;99.90
25050;DHT22;13046;49.814;9.918;2022-08-02T09:41:39;28.60;99.90
25050;DHT22;13046;49.814;9.918;2022-08-02T09:44:10;28.40;99.90
25050;DHT22;13046;49.814;9.918;2022-08-02T09:46:42;28.10;99.90
25050;DHT22;13046;49.814;9.918;2022-08-02T09:49:09;28.00;99.90
25050;DHT22;13046;49.814;9.918;2022-08-02T09:51:57;27.90;99.90
25050;DHT22;13046;49.814;9.918;2022-08-02T09:54:27;28.50;99.90
25050;DHT22;13046;49.814;9.918;2022-08-02T09:56:54;28.80;99.90
25050;DHT22;13046;49.814;9.918;2022-08-02T09:59:21;28.80;99.90
25050;DHT22;13046;49.814;9.918;2022-08-02T10:01:49;29.10;99.90
25050;DHT22;13046;49.814;9.918;2022-08-02T10:04:22;29.50;99.90
25050;DHT22;13046;49.814;9.918;2022-08-02T10:06:48;29.00;99.90
25050;DHT22;13046;49.814;9.918;2022-08-02T10:09:15;29.00;99.90
25050;DHT22;13046;49.814;9.918;2022-08-02T10:11:41;29.30;99.90
25050;DHT22;13046;49.814;9.918;2022-08-02T10:14:08;29.70;99.90
25050;DHT22;13046;49.814;9.918;2022-08-02T10:16:40;29.70;99.90
25050;DHT22;13046;49.814;9.918;2022-08-02T10:19:06;29.30;99.90
25050;DHT22;13046;49.814;9.918;2022-08-02T10:21:43;29.40;99.90
25050;DHT22;13046;49.814;9.918;2022-08-02T10:24:14;29.90;99.90
25050;DHT22;13046;49.814;9.918;2022-08-02T10:26:43;29.30;99.90
25050;DHT22;13046;49.814;9.918;2022-08-02T10:29:10;29.70;99.90
25050;DHT22;13046;49.814;9.918;2022-08-02T10:31:56;29.80;99.90
25050;DHT22;13046;49.814;9.918;2022-08-02T10:34:27;29.10;99.90
25050;DHT22;13046;49.814;9.918;2022-08-02T10:36:54;29.40;99.90
25050;DHT22;13046;49.814;9.918;2022-08-02T10:39:20;29.60;99.90
25050;DHT22;13046;49.814;9.918;2022-08-02T10:41:48;29.10;99.90
25050;DHT22;13046;49.814;9.918;2022-08-02T10:44:28;28.60;99.90
25050;DHT22;13046;49.814;9.918;2022-08-02T10:50:07;29.40;99.90
25050;DHT22;13046;49.814;9.918;2022-08-02T10:52:33;29.60;99.90
25050;DHT22;13046;49.814;9.918;2022-08-02T10:55:17;29.40;99.90
25050;DHT22;13046;49.814;9.918;2022-08-02T10:57:42;29.10;99.60
25050;DHT22;13046;49.814;9.918;2022-08-02T11:00:12;29.60;99.90
25050;DHT22;13046;49.814;9.918;2022-08-02T11:02:49;29.90;98.50
25050;DHT22;13046;49.814;9.918;2022-08-02T11:05:16;30.10;98.10
25050;DHT22;13046;49.814;9.918;2022-08-02T11:07:47;30.50;98.60
25050;DHT22;13046;49.814;9.918;2022-08-02T11:13:05;31.20;97.80
25050;DHT22;13046;49.814;9.918;2022-08-02T11:15:59;31.60;97.10
25050;DHT22;13046;49.814;9.918;2022-08-02T11:21:22;31.40;94.30
25050;DHT22;13046;49.814;9.918;2022-08-02T11:23:49;30.30;94.60
25050;DHT22;13046;49.814;9.918;2022-08-02T11:29:00;30.20;95.30
25050;DHT22;13046;49.814;9.918;2022-08-02T11:31:27;30.40;94.90
25050;DHT22;13046;49.814;9.918;2022-08-02T11:33:53;30.20;95.30
25050;DHT22;13046;49.814;9.918;2022-08-02T11:36:19;31.00;95.10
25050;DHT22;13046;49.814;9.918;2022-08-02T11:38:45;31.00;94.70
25050;DHT22;13046;49.814;9.918;2022-08-02T11:41:19;30.40;94.10
25050;DHT22;13046;49.814;9.918;2022-08-02T11:43:44;29.90;94.40
25050;DHT22;13046;49.814;9.918;2022-08-02T11:46:13;30.20;94.60
25050;DHT22;13046;49.814;9.918;2022-08-02T11:48:40;30.40;94.40
25050;DHT22;13046;49.814;9.918;2022-08-02T11:51:14;30.20;94.80
25050;DHT22;13046;49.814;9.918;2022-08-02T11:56:11;29.80;94.90
25050;DHT22;13046;49.814;9.918;2022-08-02T11:58:38;29.60;94.00
25050;DHT22;13046;49.814;9.918;2022-08-02T12:01:04;30.20;94.00
25050;DHT22;13046;49.814;9.918;2022-08-02T12:03:35;31.00;93.70
25050;DHT22;13046;49.814;9.918;2022-08-02T12:06:01;31.40;92.00
25050;DHT22;13046;49.814;9.918;2022-08-02T12:08:27;31.50;92.10
25050;DHT22;13046;49.814;9.918;2022-08-02T12:10:53;31.60;91.30
25050;DHT22;13046;49.814;9.918;2022-08-02T12:13:19;31.60;91.50
25050;DHT22;13046;49.814;9.918;2022-08-02T12:15:45;31.90;91.30
25050;DHT22;13046;49.814;9.918;2022-08-02T12:18:17;31.60;90.10
25050;DHT22;13046;49.814;9.918;2022-08-02T12:24:27;32.00;89.90
25050;DHT22;13046;49.814;9.918;2022-08-02T12:26:53;31.90;90.80
25050;DHT22;13046;49.814;9.918;2022-08-02T12:29:32;32.30;90.00
25050;DHT22;13046;49.814;9.918;2022-08-02T12:31:58;32.40;89.80
25050;DHT22;13046;49.814;9.918;2022-08-02T12:34:26;32.30;90.00
25050;DHT22;13046;49.814;9.918;2022-08-02T12:36:59;32.40;89.00
25050;DHT22;13046;49.814;9.918;2022-08-02T12:39:41;32.90;86.70
25050;DHT22;13046;49.814;9.918;2022-08-02T12:42:09;32.90;85.90
25050;DHT22;13046;49.814;9.918;2022-08-02T12:47:17;32.70;86.00
25050;DHT22;13046;49.814;9.918;2022-08-02T12:49:43;32.90;88.10
25050;DHT22;13046;49.814;9.918;2022-08-02T12:52:22;33.10;83.50
25050;DHT22;13046;49.814;9.918;2022-08-02T12:54:48;32.40;83.90
25050;DHT22;13046;49.814;9.918;2022-08-02T12:57:16;31.90;86.40
25050;DHT22;13046;49.814;9.918;2022-08-02T12:59:48;31.50;88.30
25050;DHT22;13046;49.814;9.918;2022-08-02T13:02:14;31.60;88.20
25050;DHT22;13046;49.814;9.918;2022-08-02T13:04:41;32.30;86.90
25050;DHT22;13046;49.814;9.918;2022-08-02T13:07:08;32.80;84.80
25050;DHT22;13046;49.814;9.918;2022-08-02T13:09:41;32.90;83.20
25050;DHT22;13046;49.814;9.918;2022-08-02T13:12:09;33.00;84.30
25050;DHT22;13046;49.814;9.918;2022-08-02T13:14:35;33.10;82.50
25050;DHT22;13046;49.814;9.918;2022-08-02T13:17:00;32.60;84.70
25050;DHT22;13046;49.814;9.918;2022-08-02T13:19:26;33.10;82.80
25050;DHT22;13046;49.814;9.918;2022-08-02T13:21:52;33.20;81.70
25050;DHT22;13046;49.814;9.918;2022-08-02T13:24:18;32.90;82.20
25050;DHT22;13046;49.814;9.918;2022-08-02T13:26:44;33.20;82.10
25050;DHT22;13046;49.814;9.918;2022-08-02T13:29:11;32.50;80.80
25050;DHT22;13046;49.814;9.918;2022-08-02T13:31:37;32.40;81.10
25050;DHT22;13046;49.814;9.918;2022-08-02T13:34:07;32.40;81.60
25050;DHT22;13046;49.814;9.918;2022-08-02T13:36:34;32.10;84.70
25050;DHT22;13046;49.814;9.918;2022-08-02T13:39:01;32.30;84.50
25050;DHT22;13046;49.814;9.918;2022-08-02T13:41:29;32.70;81.80
25050;DHT22;13046;49.814;9.918;2022-08-02T13:43:55;33.00;80.20
25050;DHT22;13046;49.814;9.918;2022-08-02T13:46:21;33.50;80.30
25050;DHT22;13046;49.814;9.918;2022-08-02T13:48:47;34.00;79.60
25050;DHT22;13046;49.814;9.918;2022-08-02T13:51:12;34.40;76.40
25050;DHT22;13046;49.814;9.918;2022-08-02T13:53:38;34.40;75.20
25050;DHT22;13046;49.814;9.918;2022-08-02T13:56:04;34.00;77.60
25050;DHT22;13046;49.814;9.918;2022-08-02T13:58:30;33.90;76.10
25050;DHT22;13046;49.814;9.918;2022-08-02T14:00:55;33.60;75.00
25050;DHT22;13046;49.814;9.918;2022-08-02T14:03:21;33.60;75.80
25050;DHT22;13046;49.814;9.918;2022-08-02T14:05:47;33.50;75.30
25050;DHT22;13046;49.814;9.918;2022-08-02T14:08:13;33.30;77.40
25050;DHT22;13046;49.814;9.918;2022-08-02T14:10:39;33.40;76.60
25050;DHT22;13046;49.814;9.918;2022-08-02T14:13:05;33.20;76.40
25050;DHT22;13046;49.814;9.918;2022-08-02T14:15:31;33.10;77.40
25050;DHT22;13046;49.814;9.918;2022-08-02T14:17:57;32.30;78.80
25050;DHT22;13046;49.814;9.918;2022-08-02T14:20:23;31.90;80.50
25050;DHT22;13046;49.814;9.918;2022-08-02T14:22:48;31.90;80.10
25050;DHT22;13046;49.814;9.918;2022-08-02T14:25:14;31.40;80.60
25050;DHT22;13046;49.814;9.918;2022-08-02T14:27:40;31.90;81.80
25050;DHT22;13046;49.814;9.918;2022-08-02T14:30:06;32.40;80.20
25050;DHT22;13046;49.814;9.918;2022-08-02T14:32:32;32.90;79.70
25050;DHT22;13046;49.814;9.918;2022-08-02T14:34:57;32.80;80.30
25050;DHT22;13046;49.814;9.918;2022-08-02T14:37:23;32.70;76.50
25050;DHT22;13046;49.814;9.918;2022-08-02T14:39:49;32.70;77.70
25050;DHT22;13046;49.814;9.918;2022-08-02T14:42:14;32.00;78.30
25050;DHT22;13046;49.814;9.918;2022-08-02T14:44:40;32.10;81.50
25050;DHT22;13046;49.814;9.918;2022-08-02T14:47:05;32.10;78.50
25050;DHT22;13046;49.814;9.918;2022-08-02T14:49:31;31.80;78.80
25050;DHT22;13046;49.814;9.918;2022-08-02T14:51:57;32.20;78.60
25050;DHT22;13046;49.814;9.918;2022-08-02T14:54:27;32.60;78.60
25050;DHT22;13046;49.814;9.918;2022-08-02T14:56:59;33.10;77.90
25050;DHT22;13046;49.814;9.918;2022-08-02T14:59:25;33.30;76.00
25050;DHT22;13046;49.814;9.918;2022-08-02T15:01:50;32.60;75.10
25050;DHT22;13046;49.814;9.918;2022-08-02T15:04:16;31.90;76.60
25050;DHT22;13046;49.814;9.918;2022-08-02T15:06:42;31.80;76.90
25050;DHT22;13046;49.814;9.918;2022-08-02T15:09:07;31.70;77.80
25050;DHT22;13046;49.814;9.918;2022-08-02T15:11:33;32.20;78.30
25050;DHT22;13046;49.814;9.918;2022-08-02T15:14:01;32.20;78.20
25050;DHT22;13046;49.814;9.918;2022-08-02T15:16:27;32.40;77.20
25050;DHT22;13046;49.814;9.918;2022-08-02T15:18:55;32.30;75.20
25050;DHT22;13046;49.814;9.918;2022-08-02T15:21:20;31.90;76.90
25050;DHT22;13046;49.814;9.918;2022-08-02T15:23:46;31.90;77.50
25050;DHT22;13046;49.814;9.918;2022-08-02T15:26:12;31.90;76.40
25050;DHT22;13046;49.814;9.918;2022-08-02T15:28:37;32.20;78.00
25050;DHT22;13046;49.814;9.918;2022-08-02T15:31:03;32.30;75.10
25050;DHT22;13046;49.814;9.918;2022-08-02T15:33:29;32.00;77.10
25050;DHT22;13046;49.814;9.918;2022-08-02T15:35:54;31.90;74.80
25050;DHT22;13046;49.814;9.918;2022-08-02T15:38:20;32.00;76.20
25050;DHT22;13046;49.814;9.918;2022-08-02T15:40:47;32.30;75.10
25050;DHT22;13046;49.814;9.918;2022-08-02T15:43:13;32.50;73.80
25050;DHT22;13046;49.814;9.918;2022-08-02T15:45:39;32.40;73.30
25050;DHT22;13046;49.814;9.918;2022-08-02T15:48:05;32.20;73.50
25050;DHT22;13046;49.814;9.918;2022-08-02T15:50:31;31.70;72.90
25050;DHT22;13046;49.814;9.918;2022-08-02T15:52:57;31.30;73.90
25050;DHT22;13046;49.814;9.918;2022-08-02T15:55:23;31.30;74.80
25050;DHT22;13046;49.814;9.918;2022-08-02T15:57:48;31.30;75.30
25050;DHT22;13046;49.814;9.918;2022-08-02T16:00:14;31.30;75.00
25050;DHT22;13046;49.814;9.918;2022-08-02T16:02:40;31.10;75.50
25050;DHT22;13046;49.814;9.918;2022-08-02T16:05:06;31.00;73.70
25050;DHT22;13046;49.814;9.918;2022-08-02T16:07:32;31.10;75.30
25050;DHT22;13046;49.814;9.918;2022-08-02T16:09:58;31.50;76.00
25050;DHT22;13046;49.814;9.918;2022-08-02T16:12:23;31.60;75.30
25050;DHT22;13046;49.814;9.918;2022-08-02T16:14:49;31.00;75.70
25050;DHT22;13046;49.814;9.918;2022-08-02T16:17:14;30.90;76.90
25050;DHT22;13046;49.814;9.918;2022-08-02T16:19:40;31.30;77.00
25050;DHT22;13046;49.814;9.918;2022-08-02T16:22:06;31.50;76.60
25050;DHT22;13046;49.814;9.918;2022-08-02T16:24:32;31.50;75.10
25050;DHT22;13046;49.814;9.918;2022-08-02T16:26:58;31.20;75.70
25050;DHT22;13046;49.814;9.918;2022-08-02T16:29:24;31.30;76.20
25050;DHT22;13046;49.814;9.918;2022-08-02T16:31:50;31.20;75.30
25050;DHT22;13046;49.814;9.918;2022-08-02T16:34:16;31.30;77.30
25050;DHT22;13046;49.814;9.918;2022-08-02T16:36:43;31.10;77.40
25050;DHT22;13046;49.814;9.918;2022-08-02T16:39:08;31.00;76.80
25050;DHT22;13046;49.814;9.918;2022-08-02T16:41:34;30.90;77.40
25050;DHT22;13046;49.814;9.918;2022-08-02T16:44:00;31.00;79.20
25050;DHT22;13046;49.814;9.918;2022-08-02T16:46:26;30.90;78.20
25050;DHT22;13046;49.814;9.918;2022-08-02T16:48:51;30.80;79.30
25050;DHT22;13046;49.814;9.918;2022-08-02T16:51:17;31.00;78.50
25050;DHT22;13046;49.814;9.918;2022-08-02T16:53:43;31.00;77.50
25050;DHT22;13046;49.814;9.918;2022-08-02T16:56:09;30.80;78.10
25050;DHT22;13046;49.814;9.918;2022-08-02T16:58:35;30.90;79.60
25050;DHT22;13046;49.814;9.918;2022-08-02T17:01:01;31.10;79.80
25050;DHT22;13046;49.814;9.918;2022-08-02T17:03:27;31.20;78.10
25050;DHT22;13046;49.814;9.918;2022-08-02T17:05:53;31.20;79.10
25050;DHT22;13046;49.814;9.918;2022-08-02T17:08:19;30.90;77.20
25050;DHT22;13046;49.814;9.918;2022-08-02T17:10:45;30.90;77.00
25050;DHT22;13046;49.814;9.918;2022-08-02T17:13:10;30.80;78.60
25050;DHT22;13046;49.814;9.918;2022-08-02T17:15:36;30.30;79.00
25050;DHT22;13046;49.814;9.918;2022-08-02T17:18:02;30.50;79.20
25050;DHT22;13046;49.814;9.918;2022-08-02T17:20:28;30.50;80.00
25050;DHT22;13046;49.814;9.918;2022-08-02T17:22:54;30.60;79.20
25050;DHT22;13046;49.814;9.918;2022-08-02T17:25:21;30.90;80.10
25050;DHT22;13046;49.814;9.918;2022-08-02T17:27:47;31.00;78.80
25050;DHT22;13046;49.814;9.918;2022-08-02T17:30:13;31.30;80.10
25050;DHT22;13046;49.814;9.918;2022-08-02T17:32:40;31.30;79.60
25050;DHT22;13046;49.814;9.918;2022-08-02T17:35:07;31.30;79.20
25050;DHT22;13046;49.814;9.918;2022-08-02T17:37:33;31.00;78.50
25050;DHT22;13046;49.814;9.918;2022-08-02T17:39:58;30.70;79.90
25050;DHT22;13046;49.814;9.918;2022-08-02T17:42:25;30.40;80.30
25050;DHT22;13046;49.814;9.918;2022-08-02T17:44:52;30.20;83.10
25050;DHT22;13046;49.814;9.918;2022-08-02T17:47:18;30.10;84.60
25050;DHT22;13046;49.814;9.918;2022-08-02T17:49:44;30.00;84.80
25050;DHT22;13046;49.814;9.918;2022-08-02T17:52:10;29.90;83.70
25050;DHT22;13046;49.814;9.918;2022-08-02T17:54:35;29.60;86.10
25050;DHT22;13046;49.814;9.918;2022-08-02T17:57:01;29.40;82.70
25050;DHT22;13046;49.814;9.918;2022-08-02T17:59:27;29.00;81.50
25050;DHT22;13046;49.814;9.918;2022-08-02T18:01:57;28.90;83.90
25050;DHT22;13046;49.814;9.918;2022-08-02T18:04:25;28.90;85.20
25050;DHT22;13046;49.814;9.918;2022-08-02T18:06:54;28.80;87.90
25050;DHT22;13046;49.814;9.918;2022-08-02T18:09:21;28.80;86.40
25050;DHT22;13046;49.814;9.918;2022-08-02T18:11:47;28.60;86.10
25050;DHT22;13046;49.814;9.918;2022-08-02T18:14:13;28.60;87.00
25050;DHT22;13046;49.814;9.918;2022-08-02T18:16:40;28.50;86.60
25050;DHT22;13046;49.814;9.918;2022-08-02T18:19:07;28.40;87.00
25050;DHT22;13046;49.814;9.918;2022-08-02T18:21:32;28.30;88.20
25050;DHT22;13046;49.814;9.918;2022-08-02T18:23:58;28.10;88.80
25050;DHT22;13046;49.814;9.918;2022-08-02T18:26:24;28.00;89.60
25050;DHT22;13046;49.814;9.918;2022-08-02T18:28:52;27.80;89.60
25050;DHT22;13046;49.814;9.918;2022-08-02T18:31:17;27.60;90.00
25050;DHT22;13046;49.814;9.918;2022-08-02T18:33:43;27.40;90.20
25050;DHT22;13046;49.814;9.918;2022-08-02T18:36:09;27.30;90.90
25050;DHT22;13046;49.814;9.918;2022-08-02T18:38:36;27.20;91.20
25050;DHT22;13046;49.814;9.918;2022-08-02T18:41:02;27.10;91.60
25050;DHT22;13046;49.814;9.918;2022-08-02T18:43:30;26.90;91.90
25050;DHT22;13046;49.814;9.918;2022-08-02T18:45:57;26.60;92.10
25050;DHT22;13046;49.814;9.918;2022-08-02T18:48:23;26.50;92.60
25050;DHT22;13046;49.814;9.918;2022-08-02T18:50:50;26.40;92.70
25050;DHT22;13046;49.814;9.918;2022-08-02T18:53:16;26.30;93.40
25050;DHT22;13046;49.814;9.918;2022-08-02T18:55:42;26.20;93.30
25050;DHT22;13046;49.814;9.918;2022-08-02T18:58:08;26.20;93.50
25050;DHT22;13046;49.814;9.918;2022-08-02T19:00:34;26.10;93.80
25050;DHT22;13046;49.814;9.918;2022-08-02T19:03:01;25.90;94.00
25050;DHT22;13046;49.814;9.918;2022-08-02T19:05:27;25.70;94.30
25050;DHT22;13046;49.814;9.918;2022-08-02T19:07:53;25.60;94.90
25050;DHT22;13046;49.814;9.918;2022-08-02T19:10:19;25.50;95.20
25050;DHT22;13046;49.814;9.918;2022-08-02T19:12:45;25.30;95.50
25050;DHT22;13046;49.814;9.918;2022-08-02T19:15:10;25.20;96.70
25050;DHT22;13046;49.814;9.918;2022-08-02T19:17:39;25.10;96.80
25050;DHT22;13046;49.814;9.918;2022-08-02T19:20:05;25.00;97.40
25050;DHT22;13046;49.814;9.918;2022-08-02T19:22:31;25.00;97.60
25050;DHT22;13046;49.814;9.918;2022-08-02T19:24:57;24.90;97.90
25050;DHT22;13046;49.814;9.918;2022-08-02T19:27:23;24.90;98.30
25050;DHT22;13046;49.814;9.918;2022-08-02T19:29:49;24.80;98.30
25050;DHT22;13046;49.814;9.918;2022-08-02T19:32:15;24.70;98.40
25050;DHT22;13046;49.814;9.918;2022-08-02T19:34:41;24.60;98.80
25050;DHT22;13046;49.814;9.918;2022-08-02T19:37:07;24.50;99.10
25050;DHT22;13046;49.814;9.918;2022-08-02T19:39:33;24.30;99.40
25050;DHT22;13046;49.814;9.918;2022-08-02T19:41:58;24.20;99.90
25050;DHT22;13046;49.814;9.918;2022-08-02T19:44:25;24.10;99.90
25050;DHT22;13046;49.814;9.918;2022-08-02T19:46:51;24.00;99.90
25050;DHT22;13046;49.814;9.918;2022-08-02T19:49:17;23.80;99.90
25050;DHT22;13046;49.814;9.918;2022-08-02T19:51:42;23.80;99.90
25050;DHT22;13046;49.814;9.918;2022-08-02T19:54:08;23.70;99.90
25050;DHT22;13046;49.814;9.918;2022-08-02T19:56:33;23.60;99.90
25050;DHT22;13046;49.814;9.918;2022-08-02T19:58:59;23.50;99.90
25050;DHT22;13046;49.814;9.918;2022-08-02T20:01:26;23.40;99.90
25050;DHT22;13046;49.814;9.918;2022-08-02T20:03:52;23.30;99.90
25050;DHT22;13046;49.814;9.918;2022-08-02T20:06:18;23.20;99.90
25050;DHT22;13046;49.814;9.918;2022-08-02T20:08:44;23.20;99.90
25050;DHT22;13046;49.814;9.918;2022-08-02T20:11:10;23.10;99.90
25050;DHT22;13046;49.814;9.918;2022-08-02T20:20:58;23.00;99.90
25050;DHT22;13046;49.814;9.918;2022-08-02T20:25:51;22.80;99.90
25050;DHT22;13046;49.814;9.918;2022-08-02T20:28:17;22.80;99.90
25050;DHT22;13046;49.814;9.918;2022-08-02T20:30:42;22.70;99.90
25050;DHT22;13046;49.814;9.918;2022-08-02T20:33:08;22.50;99.90
25050;DHT22;13046;49.814;9.918;2022-08-02T20:35:36;22.50;99.90
25050;DHT22;13046;49.814;9.918;2022-08-02T20:38:03;22.40;99.90
25050;DHT22;13046;49.814;9.918;2022-08-02T20:40:30;22.40;99.90
25050;DHT22;13046;49.814;9.918;2022-08-02T20:42:56;22.30;99.90
25050;DHT22;13046;49.814;9.918;2022-08-02T20:45:22;22.20;99.90
25050;DHT22;13046;49.814;9.918;2022-08-02T21:02:47;22.20;99.90
25050;DHT22;13046;49.814;9.918;2022-08-02T21:05:13;21.60;99.90
25050;DHT22;13046;49.814;9.918;2022-08-02T21:07:39;21.40;99.90
25050;DHT22;13046;49.814;9.918;2022-08-02T21:10:05;21.30;99.90
25050;DHT22;13046;49.814;9.918;2022-08-02T21:12:31;21.10;99.90
25050;DHT22;13046;49.814;9.918;2022-08-02T21:14:57;20.90;99.90
25050;DHT22;13046;49.814;9.918;2022-08-02T21:17:23;20.90;99.90
25050;DHT22;13046;49.814;9.918;2022-08-02T21:19:49;20.90;99.90
25050;DHT22;13046;49.814;9.918;2022-08-02T21:22:15;20.90;99.90
25050;DHT22;13046;49.814;9.918;2022-08-02T21:24:41;20.90;99.90
25050;DHT22;13046;49.814;9.918;2022-08-02T21:27:07;20.90;99.90
25050;DHT22;13046;49.814;9.918;2022-08-02T21:29:33;20.90;99.90
25050;DHT22;13046;49.814;9.918;2022-08-02T21:31:59;20.90;99.90
25050;DHT22;13046;49.814;9.918;2022-08-02T21:39:17;20.90;99.90
25050;DHT22;13046;49.814;9.918;2022-08-02T21:41:43;20.70;99.90
25050;DHT22;13046;49.814;9.918;2022-08-02T21:44:09;20.50;99.90
25050;DHT22;13046;49.814;9.918;2022-08-02T21:58:45;20.50;99.90
25050;DHT22;13046;49.814;9.918;2022-08-02T22:01:11;20.40;99.90
25050;DHT22;13046;49.814;9.918;2022-08-02T22:03:36;20.40;99.90
25050;DHT22;13046;49.814;9.918;2022-08-02T22:06:02;20.40;99.90